createdAt,value
2019-01-16T00:03:10.950Z,71.30
2019-01-16T00:05:43.528Z,71.50
2019-01-16T00:08:13.580Z,70.64
2019-01-16T00:10:52.406Z,71.62
2019-01-16T00:13:22.498Z,71.30
2019-01-16T00:15:58.660Z,71.29
2019-01-16T00:18:40.432Z,71.31
2019-01-16T00:21:16.441Z,70.77
2019-01-16T00:23:48.958Z,70.55
2019-01-16T00:26:21.686Z,70.40
2019-01-16T00:28:54.536Z,70.39
2019-01-16T00:31:24.614Z,70.40
2019-01-16T00:33:57.353Z,69.46
2019-01-16T00:36:27.402Z,70.24
2019-01-16T00:39:09.418Z,69.96
2019-01-16T00:41:48.507Z,70.08
2019-01-16T00:44:21.018Z,69.50
2019-01-16T00:46:56.548Z,69.36
2019-01-16T00:49:26.605Z,69.50
2019-01-16T00:51:59.816Z,69.01
2019-01-16T00:54:29.868Z,69.01
2019-01-16T00:57:14.951Z,69.20
2019-01-16T00:59:45.006Z,68.94
2019-01-16T01:02:27.106Z,69.37
2019-01-16T01:04:57.192Z,69.31
2019-01-16T01:07:39.663Z,69.16
2019-01-16T01:10:17.531Z,69.28
2019-01-16T01:12:59.856Z,69.13
2019-01-16T01:15:41.762Z,68.72
2019-01-16T01:18:23.783Z,69.19
2019-01-16T01:20:59.910Z,69.31
2019-01-16T01:23:41.713Z,69.30
2019-01-16T01:26:11.755Z,69.01
2019-01-16T01:28:41.800Z,69.05
2019-01-16T01:31:11.881Z,68.90
2019-01-16T01:34:00.301Z,68.89
2019-01-16T01:36:48.541Z,68.48
2019-01-16T01:39:34.566Z,68.31
2019-01-16T01:42:13.768Z,68.75
2019-01-16T01:44:43.846Z,68.88
2019-01-16T01:47:16.641Z,69.16
2019-01-16T01:49:55.679Z,69.07
2019-01-16T01:52:41.735Z,68.16
2019-01-16T01:55:14.618Z,67.73
2019-01-16T01:57:44.745Z,67.84
2019-01-16T02:00:31.270Z,67.67
2019-01-16T02:03:17.690Z,67.34
2019-01-16T02:05:50.459Z,67.62
2019-01-16T02:08:38.348Z,67.85
2019-01-16T02:11:08.530Z,67.53
2019-01-16T02:13:44.476Z,67.48
2019-01-16T02:16:30.732Z,67.66
2019-01-16T02:19:16.652Z,67.40
2019-01-16T02:21:52.766Z,66.95
2019-01-16T02:24:25.655Z,67.82
2019-01-16T02:26:55.688Z,67.36
2019-01-16T02:29:42.376Z,67.19
2019-01-16T02:32:15.098Z,67.21
2019-01-16T02:34:51.362Z,67.13
2019-01-16T02:37:33.814Z,67.42
2019-01-16T02:40:03.848Z,67.26
2019-01-16T02:42:33.907Z,67.51
2019-01-16T02:45:19.923Z,67.09
2019-01-16T02:47:49.974Z,67.17
2019-01-16T02:50:28.802Z,66.77
2019-01-16T02:53:13.966Z,66.37
2019-01-16T02:55:46.628Z,66.28
2019-01-16T02:58:25.568Z,65.96
2019-01-16T03:01:13.779Z,66.01
2019-01-16T03:03:46.664Z,66.08
2019-01-16T03:06:33.072Z,66.52
2019-01-16T03:09:05.567Z,66.33
2019-01-16T03:11:41.367Z,66.67
2019-01-16T03:14:11.509Z,65.87
2019-01-16T03:16:59.703Z,65.56
2019-01-16T03:19:35.241Z,64.97
2019-01-16T03:22:05.464Z,64.67
2019-01-16T03:24:38.318Z,65.32
2019-01-16T03:27:20.258Z,64.12
2019-01-16T03:29:50.338Z,63.80
2019-01-16T03:32:32.135Z,63.39
2019-01-16T03:35:02.216Z,63.54
2019-01-16T03:37:37.976Z,63.08
2019-01-16T03:40:25.951Z,62.96
2019-01-16T03:43:01.907Z,62.75
2019-01-16T03:45:34.920Z,62.63
2019-01-16T03:48:21.177Z,62.79
2019-01-16T03:50:51.214Z,62.49
2019-01-16T03:53:27.039Z,62.26
2019-01-16T03:55:57.100Z,61.91
2019-01-16T03:58:27.133Z,61.88
2019-01-16T04:00:57.266Z,62.02
2019-01-16T04:03:27.406Z,62.02
2019-01-16T04:05:57.561Z,62.28
2019-01-16T04:08:30.267Z,62.50
2019-01-16T04:11:08.917Z,62.69
2019-01-16T04:13:39.016Z,62.63
2019-01-16T04:16:14.866Z,63.21
2019-01-16T04:18:50.776Z,62.28
2019-01-16T04:21:23.667Z,61.86
2019-01-16T04:23:56.554Z,61.89
2019-01-16T04:26:42.628Z,61.51
2019-01-16T04:29:28.928Z,62.29
2019-01-16T04:32:01.632Z,62.21
2019-01-16T04:34:31.699Z,62.08
2019-01-16T04:37:01.771Z,62.05
2019-01-16T04:39:46.713Z,61.91
2019-01-16T04:42:35.224Z,61.60
2019-01-16T04:45:06.320Z,61.35
2019-01-16T04:47:54.648Z,61.11
2019-01-16T04:50:41.139Z,61.90
2019-01-16T04:53:14.034Z,62.23
2019-01-16T04:55:47.111Z,61.77
2019-01-16T04:58:17.154Z,62.44
2019-01-16T05:00:49.999Z,62.51
2019-01-16T05:03:20.048Z,62.75
2019-01-16T05:05:52.704Z,63.08
2019-01-16T05:08:38.133Z,62.91
2019-01-16T05:11:10.677Z,63.20
2019-01-16T05:13:56.990Z,63.67
2019-01-16T05:16:39.019Z,63.34
2019-01-16T05:19:24.122Z,63.22
2019-01-16T05:22:10.359Z,63.24
2019-01-16T05:24:55.550Z,63.44
2019-01-16T05:27:42.099Z,63.97
2019-01-16T05:30:13.515Z,63.45
2019-01-16T05:32:46.517Z,63.46
2019-01-16T05:35:16.656Z,63.48
2019-01-16T05:37:49.402Z,63.56
2019-01-16T05:40:19.436Z,63.50
2019-01-16T05:42:49.496Z,63.65
2019-01-16T05:45:22.556Z,63.63
2019-01-16T05:48:04.810Z,63.55
2019-01-16T05:50:37.347Z,63.32
2019-01-16T05:53:16.326Z,63.45
2019-01-16T05:56:02.592Z,63.12
2019-01-16T05:58:32.679Z,63.31
2019-01-16T06:01:08.732Z,62.82
2019-01-16T06:03:41.678Z,62.94
2019-01-16T06:06:17.705Z,62.68
2019-01-16T06:08:56.519Z,63.72
2019-01-16T06:11:29.112Z,62.58
2019-01-16T06:13:59.181Z,62.14
2019-01-16T06:16:29.226Z,61.99
2019-01-16T06:18:59.317Z,61.63
2019-01-16T06:21:29.419Z,62.48
2019-01-16T06:24:15.543Z,62.22
2019-01-16T06:26:45.577Z,62.09
2019-01-16T06:29:30.721Z,62.73
2019-01-16T06:32:16.026Z,62.69
2019-01-16T06:34:46.094Z,62.52
2019-01-16T06:37:28.208Z,62.34
2019-01-16T06:40:07.461Z,62.41
2019-01-16T06:42:37.624Z,63.03
2019-01-16T06:45:26.958Z,62.22
2019-01-16T06:48:08.718Z,62.55
2019-01-16T06:50:56.772Z,62.00
2019-01-16T06:53:26.929Z,61.78
2019-01-16T06:56:08.996Z,62.69
2019-01-16T06:58:39.079Z,62.15
2019-01-16T07:01:15.095Z,62.84
2019-01-16T07:04:00.049Z,63.44
2019-01-16T07:06:33.109Z,63.54
2019-01-16T07:09:19.426Z,63.70
2019-01-16T07:11:58.160Z,64.07
2019-01-16T07:14:34.429Z,64.17
2019-01-16T07:17:04.540Z,63.08
2019-01-16T07:19:43.725Z,63.09
2019-01-16T07:22:13.799Z,63.51
2019-01-16T07:24:49.847Z,62.96
2019-01-16T07:27:31.537Z,63.57
2019-01-16T07:30:13.420Z,63.95
2019-01-16T07:32:58.572Z,63.38
2019-01-16T07:35:31.111Z,63.46
2019-01-16T07:38:17.800Z,63.93
2019-01-16T07:41:02.928Z,63.57
2019-01-16T07:43:51.944Z,64.43
2019-01-16T07:46:22.030Z,63.40
2019-01-16T07:48:52.102Z,63.18
2019-01-16T07:51:22.144Z,63.10
2019-01-16T07:54:01.115Z,64.51
2019-01-16T07:56:37.242Z,64.08
2019-01-16T07:59:10.528Z,63.96
2019-01-16T08:01:52.743Z,63.54
2019-01-16T08:04:31.859Z,64.01
2019-01-16T08:07:05.061Z,64.25
2019-01-16T08:09:35.110Z,63.95
2019-01-16T08:12:07.893Z,63.62
2019-01-16T08:14:47.249Z,63.90
2019-01-16T08:17:33.659Z,63.67
2019-01-16T08:20:15.472Z,64.20
2019-01-16T08:23:01.904Z,63.49
2019-01-16T08:25:34.710Z,63.46
2019-01-16T08:28:04.756Z,63.81
2019-01-16T08:30:51.294Z,63.70
2019-01-16T08:33:23.914Z,63.89
2019-01-16T08:35:53.951Z,63.37
2019-01-16T08:38:24.105Z,63.78
2019-01-16T08:40:56.876Z,63.68
2019-01-16T08:43:27.002Z,63.80
2019-01-16T08:46:05.884Z,63.42
2019-01-16T08:48:36.022Z,64.25
2019-01-16T08:51:23.096Z,64.32
2019-01-16T08:53:59.005Z,64.33
2019-01-16T08:56:31.794Z,63.36
2019-01-16T08:59:07.591Z,63.87
2019-01-16T09:01:37.707Z,63.88
2019-01-16T09:04:26.541Z,63.80
2019-01-16T09:06:59.434Z,63.15
2019-01-16T09:09:44.482Z,63.03
2019-01-16T09:12:17.422Z,63.60
2019-01-16T09:15:04.170Z,63.62
2019-01-16T09:17:52.423Z,64.19
2019-01-16T09:20:22.483Z,63.71
2019-01-16T09:22:58.709Z,63.68
2019-01-16T09:25:34.970Z,64.04
2019-01-16T09:28:14.288Z,64.33
2019-01-16T09:30:44.369Z,64.45
2019-01-16T09:33:23.499Z,64.07
2019-01-16T09:35:53.570Z,64.18
2019-01-16T09:38:29.147Z,63.53
2019-01-16T09:41:14.481Z,63.15
2019-01-16T09:43:50.553Z,64.01
2019-01-16T09:46:35.659Z,63.43
2019-01-16T09:49:05.910Z,63.75
2019-01-16T09:51:54.023Z,64.59
2019-01-16T09:54:30.228Z,64.18
2019-01-16T09:57:16.725Z,63.91
2019-01-16T09:59:50.432Z,63.79
2019-01-16T10:02:36.635Z,63.47
2019-01-16T10:05:11.534Z,63.17
2019-01-16T10:07:41.577Z,63.32
2019-01-16T10:10:25.516Z,63.61
2019-01-16T10:13:10.716Z,62.86
2019-01-16T10:15:57.231Z,62.86
2019-01-16T10:18:27.301Z,63.77
2019-01-16T10:20:57.402Z,63.29
2019-01-16T10:23:45.499Z,63.20
2019-01-16T10:26:31.941Z,63.77
2019-01-16T10:29:04.800Z,63.80
2019-01-16T10:31:52.994Z,64.28
2019-01-16T10:34:29.101Z,64.05
2019-01-16T10:36:59.161Z,63.73
2019-01-16T10:39:47.191Z,63.46
2019-01-16T10:42:26.117Z,63.59
2019-01-16T10:44:59.200Z,63.51
2019-01-16T10:47:41.043Z,63.94
2019-01-16T10:50:19.826Z,63.31
2019-01-16T10:52:49.919Z,63.86
2019-01-16T10:55:19.966Z,63.33
2019-01-16T10:57:55.968Z,62.45
2019-01-16T11:00:31.881Z,63.69
2019-01-16T11:03:10.990Z,62.77
2019-01-16T11:05:47.200Z,63.38
2019-01-16T11:08:17.243Z,63.08
2019-01-16T11:10:59.363Z,63.36
2019-01-16T11:13:35.382Z,62.73
2019-01-16T11:16:20.780Z,62.25
2019-01-16T11:18:56.705Z,61.20
2019-01-16T11:21:42.868Z,61.30
2019-01-16T11:24:15.766Z,61.54
2019-01-16T11:27:02.312Z,60.32
2019-01-16T11:29:35.041Z,59.42
2019-01-16T11:32:17.028Z,58.83
2019-01-16T11:34:49.804Z,59.13
2019-01-16T11:37:20.059Z,59.19
2019-01-16T11:39:53.076Z,59.92
2019-01-16T11:42:23.139Z,59.05
2019-01-16T11:45:02.281Z,60.39
2019-01-16T11:47:38.246Z,60.81
2019-01-16T11:50:21.268Z,60.13
2019-01-16T11:52:57.268Z,59.96
2019-01-16T11:55:44.089Z,60.51
2019-01-16T11:58:23.000Z,59.73
2019-01-16T12:00:53.226Z,59.88
2019-01-16T12:03:23.294Z,59.36
2019-01-16T12:05:53.332Z,59.30
2019-01-16T12:08:23.705Z,58.89
2019-01-16T12:11:08.622Z,59.30
2019-01-16T12:13:41.499Z,59.38
2019-01-16T12:16:28.217Z,58.97
2019-01-16T12:18:58.271Z,58.13
2019-01-16T12:21:40.667Z,59.00
2019-01-16T12:24:17.053Z,60.16
2019-01-16T12:27:03.347Z,59.42
2019-01-16T12:29:36.312Z,59.46
2019-01-16T12:32:06.548Z,59.40
2019-01-16T12:34:39.307Z,59.59
2019-01-16T12:37:15.066Z,59.64
2019-01-16T12:39:45.128Z,59.54
2019-01-16T12:42:17.990Z,60.02
2019-01-16T12:45:00.514Z,59.64
2019-01-16T12:47:30.664Z,60.04
2019-01-16T12:50:03.154Z,59.71
2019-01-16T12:52:36.021Z,59.93
2019-01-16T12:55:25.930Z,59.41
2019-01-16T12:58:13.342Z,59.37
2019-01-16T13:00:51.405Z,59.91
2019-01-16T13:03:21.624Z,60.02
2019-01-16T13:06:00.710Z,60.27
2019-01-16T13:08:42.546Z,59.95
2019-01-16T13:11:15.549Z,59.94
2019-01-16T13:13:51.214Z,60.37
2019-01-16T13:16:21.348Z,60.09
2019-01-16T13:19:03.335Z,59.97
2019-01-16T13:21:39.936Z,60.11
2019-01-16T13:24:17.425Z,60.15
2019-01-16T13:26:53.011Z,60.23
2019-01-16T13:29:23.068Z,59.65
2019-01-16T13:31:53.281Z,59.98
2019-01-16T13:34:26.334Z,59.76
2019-01-16T13:36:56.386Z,60.25
2019-01-16T13:39:26.533Z,60.98
2019-01-16T13:41:56.606Z,60.83
2019-01-16T13:44:32.664Z,61.02
2019-01-16T13:47:11.712Z,60.63
2019-01-16T13:49:50.775Z,60.65
2019-01-16T13:52:26.821Z,60.92
2019-01-16T13:55:03.094Z,60.74
2019-01-16T13:57:33.184Z,60.13
2019-01-16T14:00:19.684Z,60.46
2019-01-16T14:03:05.962Z,61.01
2019-01-16T14:05:38.901Z,61.26
2019-01-16T14:08:09.037Z,61.08
2019-01-16T14:10:45.201Z,61.04
2019-01-16T14:13:15.278Z,61.08
2019-01-16T14:15:48.076Z,61.00
2019-01-16T14:18:18.472Z,60.89
2019-01-16T14:20:57.637Z,61.65
2019-01-16T14:23:27.724Z,61.78
2019-01-16T14:26:10.339Z,61.62
2019-01-16T14:28:43.274Z,62.14
2019-01-16T14:31:30.083Z,61.57
2019-01-16T14:34:16.382Z,61.89
2019-01-16T14:37:02.692Z,62.16
2019-01-16T14:39:50.976Z,62.53
2019-01-16T14:42:24.100Z,62.52
2019-01-16T14:45:06.374Z,62.65
2019-01-16T14:47:36.678Z,62.70
2019-01-16T14:50:10.188Z,62.44
2019-01-16T14:52:49.087Z,63.29
2019-01-16T14:55:33.912Z,63.25
2019-01-16T14:58:19.062Z,63.39
2019-01-16T15:01:00.963Z,62.98
2019-01-16T15:03:43.194Z,63.17
2019-01-16T15:06:13.331Z,63.19
2019-01-16T15:09:00.105Z,62.85
2019-01-16T15:11:38.851Z,63.53
2019-01-16T15:14:11.801Z,63.20
2019-01-16T15:16:44.573Z,63.19
2019-01-16T15:19:20.414Z,63.43
2019-01-16T15:22:02.849Z,63.06
2019-01-16T15:24:31.682Z,63.70
2019-01-16T15:27:01.858Z,63.12
2019-01-16T15:29:40.831Z,63.22
2019-01-16T15:32:29.330Z,63.27
2019-01-16T15:35:15.865Z,63.39
2019-01-16T15:37:46.299Z,63.70
2019-01-16T15:40:28.758Z,63.51
2019-01-16T15:42:58.943Z,63.14
2019-01-16T15:45:45.199Z,63.61
2019-01-16T15:48:31.695Z,62.90
2019-01-16T15:51:18.017Z,63.88
2019-01-16T15:53:51.131Z,63.04
2019-01-16T15:56:27.396Z,63.20
2019-01-16T15:59:15.593Z,63.71
2019-01-16T16:01:45.910Z,63.60
2019-01-16T16:04:24.580Z,64.09
2019-01-16T16:07:03.955Z,63.48
2019-01-16T16:09:45.767Z,63.29
2019-01-16T16:12:34.406Z,64.17
2019-01-16T16:15:07.126Z,63.79
2019-01-16T16:17:53.440Z,63.17
2019-01-16T16:20:23.490Z,64.12
2019-01-16T16:22:59.898Z,64.34
2019-01-16T16:25:38.954Z,63.58
2019-01-16T16:28:11.756Z,63.99
2019-01-16T16:30:41.804Z,65.20
2019-01-16T16:33:14.552Z,64.46
2019-01-16T16:36:00.943Z,64.86
2019-01-16T16:38:40.120Z,64.82
2019-01-16T16:41:12.968Z,64.46
2019-01-16T16:43:59.190Z,65.24
2019-01-16T16:46:31.663Z,65.46
2019-01-16T16:49:04.697Z,65.43
2019-01-16T16:51:51.004Z,64.98
2019-01-16T16:54:24.096Z,65.09
2019-01-16T16:57:06.247Z,65.95
2019-01-16T16:59:42.308Z,65.98
2019-01-16T17:02:15.491Z,65.23
2019-01-16T17:04:45.522Z,65.51
2019-01-16T17:07:24.220Z,64.80
2019-01-16T17:09:54.326Z,65.69
2019-01-16T17:12:30.247Z,65.01
2019-01-16T17:15:09.470Z,65.12
2019-01-16T17:17:45.076Z,65.55
2019-01-16T17:20:21.472Z,65.06
2019-01-16T17:22:51.526Z,64.62
2019-01-16T17:25:24.336Z,65.47
2019-01-16T17:28:10.531Z,66.00
2019-01-16T17:30:55.922Z,64.96
2019-01-16T17:33:42.172Z,64.96
2019-01-16T17:36:28.609Z,65.24
2019-01-16T17:39:17.229Z,65.32
2019-01-16T17:41:56.502Z,64.01
2019-01-16T17:44:32.494Z,64.15
2019-01-16T17:47:08.378Z,64.62
2019-01-16T17:49:50.346Z,65.51
2019-01-16T17:52:38.916Z,65.03
2019-01-16T17:55:18.419Z,65.59
2019-01-16T17:57:48.514Z,65.28
2019-01-16T18:00:24.916Z,65.28
2019-01-16T18:02:57.786Z,64.98
2019-01-16T18:05:44.401Z,64.99
2019-01-16T18:08:30.900Z,65.26
2019-01-16T18:11:10.135Z,64.23
2019-01-16T18:13:40.385Z,65.38
2019-01-16T18:16:28.971Z,66.04
2019-01-16T18:19:15.590Z,65.77
2019-01-16T18:21:48.657Z,65.88
2019-01-16T18:24:35.313Z,65.32
2019-01-16T18:27:20.595Z,65.23
2019-01-16T18:29:50.808Z,65.54
2019-01-16T18:32:36.519Z,65.35
2019-01-16T18:35:16.973Z,64.24
2019-01-16T18:37:47.304Z,65.05
2019-01-16T18:40:32.933Z,65.71
2019-01-16T18:43:03.306Z,65.67
2019-01-16T18:45:33.689Z,66.92
2019-01-16T18:48:15.852Z,65.21
2019-01-16T18:51:02.279Z,66.11
2019-01-16T18:53:49.087Z,66.75
2019-01-16T18:56:21.773Z,66.33
2019-01-16T18:59:01.155Z,65.63
2019-01-16T19:01:49.225Z,66.08
2019-01-16T19:04:19.570Z,65.80
2019-01-16T19:07:07.874Z,65.69
2019-01-16T19:09:38.199Z,64.62
2019-01-16T19:12:17.842Z,65.34
2019-01-16T19:15:06.058Z,65.77
2019-01-16T19:17:36.327Z,66.34
2019-01-16T19:20:21.204Z,65.41
2019-01-16T19:23:06.736Z,65.23
2019-01-16T19:25:40.042Z,64.93
2019-01-16T19:28:10.326Z,64.45
2019-01-16T19:30:56.362Z,64.43
2019-01-16T19:33:26.768Z,64.41
2019-01-16T19:36:13.734Z,65.38
2019-01-16T19:39:00.399Z,64.34
2019-01-16T19:41:30.731Z,63.97
2019-01-16T19:44:07.286Z,64.31
2019-01-16T19:46:53.812Z,64.59
2019-01-16T19:49:25.552Z,64.61
2019-01-16T19:52:11.080Z,65.21
2019-01-16T19:54:50.057Z,64.69
2019-01-16T19:57:29.053Z,64.18
2019-01-16T20:00:08.458Z,66.19
2019-01-16T20:02:47.990Z,65.03
2019-01-16T20:05:18.267Z,64.87
2019-01-16T20:07:49.996Z,64.20
2019-01-16T20:10:29.432Z,64.70
2019-01-16T20:13:05.507Z,64.51
2019-01-16T20:15:52.716Z,64.09
2019-01-16T20:18:41.493Z,64.65
2019-01-16T20:21:14.618Z,64.96
2019-01-16T20:23:44.918Z,65.03
2019-01-16T20:26:33.329Z,64.51
2019-01-16T20:29:03.746Z,63.28
2019-01-16T20:31:34.013Z,61.11
2019-01-16T20:34:12.802Z,60.51
2019-01-16T20:36:59.220Z,60.40
2019-01-16T20:39:29.607Z,59.83
2019-01-16T20:42:08.590Z,59.60
2019-01-16T20:44:53.690Z,59.86
2019-01-16T20:47:23.909Z,60.10
2019-01-16T20:49:59.709Z,60.08
2019-01-16T20:52:42.235Z,60.06
2019-01-16T20:55:18.747Z,60.18
2019-01-16T20:58:05.454Z,60.13
2019-01-16T21:00:51.707Z,60.47
2019-01-16T21:03:38.335Z,60.52
2019-01-16T21:06:21.131Z,60.51
2019-01-16T21:08:54.272Z,60.79
2019-01-16T21:11:24.561Z,60.75
2019-01-16T21:13:54.877Z,60.90
2019-01-16T21:16:25.015Z,61.32
2019-01-16T21:19:07.552Z,61.32
2019-01-16T21:21:46.517Z,61.66
2019-01-16T21:24:22.831Z,61.11
2019-01-16T21:26:52.981Z,61.36
2019-01-16T21:29:26.034Z,61.60
2019-01-16T21:32:05.545Z,61.75
2019-01-16T21:34:35.968Z,61.67
2019-01-16T21:37:06.386Z,61.24
2019-01-16T21:39:51.797Z,61.98
2019-01-16T21:42:27.679Z,62.15
2019-01-16T21:45:10.017Z,62.29
2019-01-16T21:47:42.867Z,61.77
2019-01-16T21:50:25.353Z,61.95
2019-01-16T21:53:10.594Z,62.34
2019-01-16T21:55:43.687Z,62.53
2019-01-16T21:58:22.966Z,62.29
2019-01-16T22:00:53.252Z,62.18
2019-01-16T22:03:25.739Z,62.54
2019-01-16T22:06:01.325Z,64.04
2019-01-16T22:08:31.487Z,62.79
2019-01-16T22:11:10.594Z,62.36
2019-01-16T22:13:43.348Z,62.62
2019-01-16T22:16:29.602Z,62.24
2019-01-16T22:19:14.496Z,62.37
2019-01-16T22:21:53.810Z,62.41
2019-01-16T22:24:32.870Z,62.11
2019-01-16T22:27:19.533Z,62.05
2019-01-16T22:29:52.182Z,62.37
2019-01-16T22:32:25.255Z,62.19
2019-01-16T22:34:55.313Z,62.14
2019-01-16T22:37:25.381Z,62.06
2019-01-16T22:39:57.897Z,62.12
2019-01-16T22:42:28.049Z,62.25
2019-01-16T22:44:58.107Z,62.23
2019-01-16T22:47:44.807Z,62.21
2019-01-16T22:50:20.711Z,62.12
2019-01-16T22:52:53.331Z,62.47
2019-01-16T22:55:38.125Z,61.89
2019-01-16T22:58:11.439Z,62.23
2019-01-16T23:00:55.165Z,62.21
2019-01-16T23:03:31.271Z,62.31
2019-01-16T23:06:07.522Z,61.66
2019-01-16T23:08:37.689Z,61.89
2019-01-16T23:11:07.800Z,62.03
2019-01-16T23:13:43.566Z,62.03
2019-01-16T23:16:28.445Z,61.71
2019-01-16T23:18:59.784Z,61.92
2019-01-16T23:21:55.512Z,62.12
2019-01-16T23:24:25.684Z,61.75
2019-01-16T23:27:01.547Z,62.31
2019-01-16T23:29:50.453Z,62.08
2019-01-16T23:32:19.659Z,62.41
2019-01-16T23:35:05.577Z,62.25
2019-01-16T23:37:50.661Z,62.59
2019-01-16T23:40:23.786Z,62.59
2019-01-16T23:42:53.953Z,63.08
2019-01-16T23:45:32.813Z,63.14
2019-01-16T23:48:02.905Z,62.93
2019-01-16T23:50:32.967Z,62.80
2019-01-16T23:53:19.417Z,62.90
2019-01-16T23:56:06.043Z,63.15
2019-01-16T23:58:39.073Z,62.91
